createdAt,value
2022-09-01T00:00:16.538Z,31.39
2022-09-01T00:02:46.183Z,31.21
2022-09-01T00:05:15.506Z,31.19
2022-09-01T00:07:46.335Z,31.16
2022-09-01T00:10:15.964Z,31.09
2022-09-01T00:12:46.473Z,31.10
2022-09-01T00:15:16.345Z,31.15
2022-09-01T00:17:45.637Z,31.14
2022-09-01T00:20:19.588Z,31.14
2022-09-01T00:22:50.230Z,31.09
2022-09-01T00:25:21.216Z,31.09
2022-09-01T00:27:51.071Z,31.14
2022-09-01T00:30:21.918Z,31.05
2022-09-01T00:32:51.216Z,31.10
2022-09-01T00:35:21.351Z,31.14
2022-09-01T00:37:50.649Z,31.11
2022-09-01T00:40:21.404Z,31.15
2022-09-01T00:42:50.682Z,31.09
2022-09-01T00:45:23.153Z,31.09
2022-09-01T00:47:52.443Z,31.17
2022-09-01T00:50:23.076Z,31.14
2022-09-01T00:52:56.131Z,31.17
2022-09-01T00:55:32.638Z,31.22
2022-09-01T00:58:04.550Z,31.18
2022-09-01T01:00:42.446Z,31.12
2022-09-01T01:03:13.166Z,31.18
2022-09-01T01:05:55.518Z,31.11
2022-09-01T01:08:51.252Z,31.12
2022-09-01T01:11:21.002Z,31.04
2022-09-01T01:13:57.764Z,31.12
2022-09-01T01:16:29.734Z,31.16
2022-09-01T01:18:59.847Z,31.14
2022-09-01T01:22:02.657Z,31.27
2022-09-01T01:24:36.739Z,31.30
2022-09-01T01:27:06.263Z,31.26
2022-09-01T01:29:41.210Z,31.35
2022-09-01T01:32:14.068Z,31.32
2022-09-01T01:34:48.628Z,31.35
2022-09-01T01:37:19.756Z,31.37
2022-09-01T01:39:49.615Z,31.39
2022-09-01T01:42:20.313Z,31.44
2022-09-01T01:44:51.117Z,31.48
2022-09-01T01:47:21.359Z,31.51
2022-09-01T01:49:50.572Z,31.55
2022-09-01T01:52:21.887Z,31.54
2022-09-01T01:54:55.362Z,31.61
2022-09-01T01:57:24.772Z,31.62
2022-09-01T01:59:55.188Z,31.65
2022-09-01T02:02:24.693Z,31.75
2022-09-01T02:04:56.014Z,31.79
2022-09-01T02:07:25.757Z,31.76
2022-09-01T02:09:59.362Z,31.79
2022-09-01T02:12:28.957Z,31.89
2022-09-01T02:15:01.702Z,31.91
2022-09-01T02:17:31.026Z,31.97
2022-09-01T02:20:00.332Z,32.04
2022-09-01T02:22:29.548Z,32.02
2022-09-01T02:24:59.218Z,32.05
2022-09-01T02:27:30.529Z,32.13
2022-09-01T02:30:03.133Z,32.07
2022-09-01T02:32:33.232Z,32.18
2022-09-01T02:35:02.582Z,32.20
2022-09-01T02:37:31.908Z,32.28
2022-09-01T02:40:01.575Z,32.39
2022-09-01T02:42:31.399Z,32.37
2022-09-01T02:45:02.663Z,32.35
2022-09-01T02:47:32.508Z,32.63
2022-09-01T02:50:04.746Z,32.52
2022-09-01T02:52:37.093Z,32.61
2022-09-01T02:55:06.992Z,32.65
2022-09-01T02:57:36.858Z,32.74
2022-09-01T03:00:21.637Z,32.86
2022-09-01T03:02:55.175Z,32.89
2022-09-01T03:05:28.217Z,32.91
2022-09-01T03:08:00.858Z,32.96
2022-09-01T03:10:34.505Z,33.02
2022-09-01T03:13:13.765Z,33.13
2022-09-01T03:15:44.543Z,33.03
2022-09-01T03:18:15.899Z,33.12
2022-09-01T03:20:47.490Z,33.22
2022-09-01T03:23:20.021Z,33.28
2022-09-01T03:25:50.405Z,33.31
2022-09-01T03:28:20.038Z,33.39
2022-09-01T03:30:52.220Z,33.45
2022-09-01T03:33:22.779Z,33.64
2022-09-01T03:35:52.592Z,33.54
2022-09-01T03:38:24.032Z,33.54
2022-09-01T03:41:02.993Z,33.65
2022-09-01T03:43:36.320Z,33.68
2022-09-01T03:46:06.441Z,33.69
2022-09-01T03:48:36.989Z,33.73
2022-09-01T03:51:07.242Z,33.90
2022-09-01T03:53:47.136Z,34.01
2022-09-01T03:56:17.049Z,34.03
2022-09-01T03:58:48.024Z,34.07
2022-09-01T04:01:21.790Z,34.12
2022-09-01T04:03:53.396Z,34.13
2022-09-01T04:06:27.218Z,34.24
2022-09-01T04:08:58.461Z,34.28
2022-09-01T04:11:27.919Z,34.41
2022-09-01T04:13:57.797Z,34.45
2022-09-01T04:16:51.041Z,34.67
2022-09-01T04:19:29.246Z,34.73
2022-09-01T04:22:01.705Z,34.81
2022-09-01T04:24:51.252Z,34.79
2022-09-01T04:27:22.902Z,34.77
2022-09-01T04:29:57.433Z,34.87
2022-09-01T04:32:30.482Z,34.92
2022-09-01T04:35:03.416Z,35.06
2022-09-01T04:37:37.654Z,35.12
2022-09-01T04:40:09.711Z,35.16
2022-09-01T04:42:39.207Z,35.19
2022-09-01T04:45:12.017Z,35.27
2022-09-01T04:47:44.228Z,35.42
2022-09-01T04:50:18.431Z,35.54
2022-09-01T04:53:07.376Z,35.60
2022-09-01T04:55:47.130Z,35.74
2022-09-01T04:58:23.664Z,35.59
2022-09-01T05:00:53.187Z,35.67
2022-09-01T05:03:25.361Z,35.70
2022-09-01T05:06:20.193Z,35.90
2022-09-01T05:08:59.406Z,35.87
2022-09-01T05:11:48.128Z,35.89
2022-09-01T05:14:26.837Z,36.06
2022-09-01T05:17:02.861Z,36.13
2022-09-01T05:19:33.045Z,36.10
2022-09-01T05:22:02.937Z,36.13
2022-09-01T05:24:41.259Z,36.17
2022-09-01T05:27:13.346Z,36.22
2022-09-01T05:29:48.126Z,36.20
2022-09-01T05:32:17.412Z,36.30
2022-09-01T05:34:47.248Z,36.43
2022-09-01T05:37:18.258Z,36.52
2022-09-01T05:39:47.479Z,36.68
2022-09-01T05:42:16.577Z,36.80
2022-09-01T05:44:46.140Z,36.86
2022-09-01T05:47:21.016Z,36.92
2022-09-01T05:49:54.738Z,36.96
2022-09-01T05:52:26.083Z,37.01
2022-09-01T05:54:57.899Z,37.13
2022-09-01T05:57:35.256Z,37.57
2022-09-01T06:00:13.394Z,37.32
2022-09-01T06:02:46.119Z,37.47
2022-09-01T06:05:20.253Z,37.43
2022-09-01T06:07:52.018Z,37.30
2022-09-01T06:10:22.557Z,37.51
2022-09-01T06:12:54.865Z,37.63
2022-09-01T06:15:26.124Z,37.71
2022-09-01T06:17:57.371Z,37.63
2022-09-01T06:20:27.605Z,37.77
2022-09-01T06:22:59.218Z,37.79
2022-09-01T06:25:31.533Z,37.84
2022-09-01T06:28:05.964Z,37.90
2022-09-01T06:30:37.550Z,37.97
2022-09-01T06:33:13.493Z,38.12
2022-09-01T06:38:35.250Z,38.15
2022-09-01T06:41:13.963Z,38.31
2022-09-01T06:46:30.493Z,38.21
2022-09-01T06:49:24.651Z,37.98
2022-09-01T06:51:53.973Z,37.90
2022-09-01T06:54:26.787Z,37.97
2022-09-01T06:56:56.583Z,38.11
2022-09-01T06:59:34.828Z,38.40
2022-09-01T07:02:07.642Z,38.34
2022-09-01T07:05:04.019Z,38.47
2022-09-01T07:16:52.041Z,38.10
2022-09-01T07:25:16.802Z,37.54
2022-09-01T07:28:09.348Z,37.54
2022-09-01T07:30:48.614Z,37.50
2022-09-01T07:36:26.808Z,37.39
2022-09-01T07:45:29.204Z,37.09
2022-09-01T07:48:04.504Z,36.97
2022-09-01T07:51:07.580Z,36.95
2022-09-01T07:53:35.348Z,36.67
2022-09-01T07:56:11.409Z,36.56
2022-09-01T07:58:46.453Z,36.50
2022-09-01T08:01:22.128Z,36.52
2022-09-01T08:03:55.319Z,36.39
2022-09-01T08:06:28.090Z,36.25
2022-09-01T08:09:01.748Z,36.11
2022-09-01T08:12:00.487Z,36.14
2022-09-01T08:14:24.862Z,35.98
2022-09-01T08:16:55.321Z,35.93
2022-09-01T08:19:24.893Z,35.82
2022-09-01T08:22:10.667Z,35.80
2022-09-01T08:24:53.643Z,35.78
2022-09-01T08:27:23.818Z,35.74
2022-09-01T08:29:52.862Z,35.61
2022-09-01T08:32:23.685Z,35.61
2022-09-01T08:34:53.164Z,35.55
2022-09-01T08:37:22.571Z,35.37
2022-09-01T08:39:51.950Z,35.35
2022-09-01T08:42:36.207Z,35.41
2022-09-01T08:45:31.637Z,35.14
2022-09-01T08:51:17.191Z,33.24
2022-09-01T08:54:18.523Z,33.13
2022-09-01T08:57:22.246Z,33.21
2022-09-01T09:00:13.676Z,32.85
2022-09-01T09:03:14.639Z,32.97
2022-09-01T09:05:58.819Z,33.16
2022-09-01T09:08:52.469Z,32.82
2022-09-01T09:11:41.395Z,32.80
2022-09-01T09:14:29.085Z,33.24
2022-09-01T09:16:59.303Z,33.48
2022-09-01T09:19:28.718Z,33.56
2022-09-01T09:22:01.027Z,34.03
2022-09-01T09:24:48.165Z,34.47
2022-09-01T09:27:30.784Z,34.63
2022-09-01T09:30:11.736Z,34.83
2022-09-01T09:33:44.338Z,34.81
2022-09-01T09:36:22.194Z,35.19
2022-09-01T09:39:08.457Z,35.30
2022-09-01T09:41:39.851Z,35.29
2022-09-01T09:44:32.906Z,35.62
2022-09-01T09:47:10.245Z,35.34
2022-09-01T09:49:48.878Z,35.36
2022-09-01T09:52:20.291Z,35.47
2022-09-01T09:55:25.271Z,35.60
2022-09-01T09:58:13.087Z,35.74
2022-09-01T10:01:01.978Z,35.82
2022-09-01T10:03:45.021Z,35.96
2022-09-01T10:06:33.211Z,35.94
2022-09-01T10:09:09.427Z,35.77
2022-09-01T10:11:45.372Z,35.75
2022-09-01T10:14:53.389Z,35.78
2022-09-01T10:17:30.829Z,35.89
2022-09-01T10:20:07.656Z,35.77
2022-09-01T10:22:42.624Z,35.75
2022-09-01T10:25:22.171Z,35.79
2022-09-01T10:27:59.261Z,35.84
2022-09-01T10:30:30.571Z,35.73
2022-09-01T10:33:10.996Z,35.73
2022-09-01T10:35:49.481Z,35.80
2022-09-01T10:38:21.586Z,35.74
2022-09-01T10:41:09.014Z,35.75
2022-09-01T10:43:46.588Z,35.74
2022-09-01T10:46:25.857Z,35.90
2022-09-01T10:49:03.118Z,35.80
2022-09-01T10:51:38.856Z,35.79
2022-09-01T10:54:08.864Z,35.77
2022-09-01T10:56:51.339Z,35.65
2022-09-01T10:59:35.617Z,35.81
2022-09-01T11:02:23.500Z,35.90
2022-09-01T11:05:00.830Z,35.86
2022-09-01T11:10:34.451Z,35.85
2022-09-01T11:13:50.335Z,35.98
2022-09-01T11:16:48.136Z,35.95
2022-09-01T11:19:40.343Z,35.89
2022-09-01T11:22:26.715Z,35.89
2022-09-01T11:25:39.743Z,35.95
2022-09-01T11:28:33.655Z,35.79
2022-09-01T11:31:09.564Z,35.87
2022-09-01T11:33:57.000Z,36.07
2022-09-01T11:36:37.413Z,35.98
2022-09-01T11:39:16.417Z,35.87
2022-09-01T11:42:20.265Z,35.99
2022-09-01T11:45:06.683Z,36.02
2022-09-01T11:47:46.453Z,36.02
2022-09-01T11:50:28.758Z,36.04
2022-09-01T11:53:11.805Z,36.08
2022-09-01T11:55:44.294Z,36.05
2022-09-01T11:58:30.166Z,36.03
2022-09-01T12:01:23.165Z,36.08
2022-09-01T12:03:54.142Z,36.04
2022-09-01T12:06:27.352Z,35.98
2022-09-01T12:09:03.160Z,36.05
2022-09-01T12:11:42.961Z,36.07
2022-09-01T12:14:13.465Z,35.97
2022-09-01T12:16:43.965Z,35.83
2022-09-01T12:19:26.486Z,35.96
2022-09-01T12:22:21.103Z,35.99
2022-09-01T12:24:54.657Z,35.86
2022-09-01T12:27:24.362Z,35.74
2022-09-01T12:29:53.844Z,35.67
2022-09-01T12:32:23.365Z,35.55
2022-09-01T12:35:16.123Z,35.54
2022-09-01T12:37:45.364Z,35.27
2022-09-01T12:40:26.777Z,35.40
2022-09-01T12:42:57.175Z,35.25
2022-09-01T12:45:49.070Z,35.33
2022-09-01T12:48:33.412Z,35.25
2022-09-01T12:51:18.325Z,35.22
2022-09-01T12:54:04.770Z,35.24
2022-09-01T12:56:37.445Z,35.11
2022-09-01T12:59:25.243Z,35.04
2022-09-01T13:02:28.386Z,35.11
2022-09-01T13:05:20.262Z,35.06
2022-09-01T13:07:49.518Z,34.90
2022-09-01T13:10:18.592Z,34.96
2022-09-01T13:12:48.193Z,34.92
2022-09-01T13:15:17.282Z,34.90
2022-09-01T13:17:46.994Z,34.84
2022-09-01T13:20:16.448Z,34.88
2022-09-01T13:22:46.140Z,34.85
2022-09-01T13:25:21.901Z,34.79
2022-09-01T13:27:54.033Z,34.69
2022-09-01T13:30:26.681Z,34.57
2022-09-01T13:35:45.824Z,34.56
2022-09-01T13:38:17.180Z,34.44
2022-09-01T13:40:48.131Z,34.57
2022-09-01T13:43:20.493Z,34.47
2022-09-01T13:49:04.501Z,34.39
2022-09-01T13:51:38.237Z,34.37
2022-09-01T13:54:08.209Z,34.30
2022-09-01T13:56:38.506Z,34.17
2022-09-01T13:59:08.327Z,34.15
2022-09-01T14:01:37.720Z,34.02
2022-09-01T14:04:07.139Z,34.05
2022-09-01T14:06:42.011Z,34.10
2022-09-01T14:09:15.676Z,33.90
2022-09-01T14:11:46.944Z,33.84
2022-09-01T14:14:16.098Z,33.82
2022-09-01T14:16:47.474Z,33.84
2022-09-01T14:19:16.818Z,33.77
2022-09-01T14:21:46.268Z,33.78
2022-09-01T14:24:19.998Z,33.79
2022-09-01T14:26:49.691Z,33.77
2022-09-01T14:29:18.968Z,33.67
2022-09-01T14:31:47.885Z,33.62
2022-09-01T14:34:17.494Z,33.66
2022-09-01T14:36:46.558Z,33.67
2022-09-01T14:39:15.901Z,33.64
2022-09-01T14:41:45.037Z,33.60
2022-09-01T14:44:14.371Z,33.56
2022-09-01T14:46:44.621Z,33.47
2022-09-01T14:49:13.726Z,33.49
2022-09-01T14:54:32.901Z,33.39
2022-09-01T14:59:53.263Z,33.28
2022-09-01T15:02:23.068Z,33.28
2022-09-01T15:04:52.917Z,33.30
2022-09-01T15:07:22.134Z,33.25
2022-09-01T15:09:51.411Z,33.21
2022-09-01T15:12:21.067Z,33.18
2022-09-01T15:14:50.202Z,33.14
2022-09-01T15:17:20.234Z,33.11
2022-09-01T15:19:49.205Z,33.06
2022-09-01T15:22:18.145Z,33.03
2022-09-01T15:24:47.586Z,33.00
2022-09-01T15:27:16.608Z,32.97
2022-09-01T15:29:50.108Z,32.94
2022-09-01T15:32:28.058Z,32.85
2022-09-01T15:34:57.816Z,32.88
2022-09-01T15:37:27.005Z,32.87
2022-09-01T15:39:56.394Z,32.86
2022-09-01T15:42:25.426Z,32.81
2022-09-01T15:44:54.808Z,32.77
2022-09-01T15:47:23.864Z,32.72
2022-09-01T15:49:53.098Z,32.69
2022-09-01T15:52:22.203Z,32.68
2022-09-01T15:54:51.201Z,32.63
2022-09-01T15:57:20.425Z,32.61
2022-09-01T15:59:50.058Z,32.58
2022-09-01T16:02:22.117Z,32.55
2022-09-01T16:04:51.213Z,32.56
2022-09-01T16:07:20.638Z,32.56
2022-09-01T16:09:49.666Z,32.52
2022-09-01T16:12:22.245Z,32.51
2022-09-01T16:14:52.591Z,32.45
2022-09-01T16:17:52.926Z,32.58
2022-09-01T16:20:29.932Z,32.55
2022-09-01T16:23:22.856Z,32.58
2022-09-01T16:25:54.145Z,32.39
2022-09-01T16:28:33.049Z,32.48
2022-09-01T16:31:14.928Z,32.44
2022-09-01T16:33:51.968Z,32.45
2022-09-01T16:36:29.996Z,32.30
2022-09-01T16:39:27.048Z,32.47
2022-09-01T16:42:39.329Z,32.45
2022-09-01T16:45:17.237Z,32.40
2022-09-01T16:47:55.411Z,32.33
2022-09-01T16:50:55.401Z,32.37
2022-09-01T16:53:33.381Z,32.36
2022-09-01T16:56:29.220Z,32.40
2022-09-01T17:01:58.360Z,32.31
2022-09-01T17:05:02.849Z,32.42
2022-09-01T17:07:41.167Z,32.37
2022-09-01T17:10:25.890Z,32.41
2022-09-01T17:12:57.358Z,32.34
2022-09-01T17:15:42.054Z,32.38
2022-09-01T17:18:23.321Z,32.34
2022-09-01T17:21:10.165Z,32.35
2022-09-01T17:23:47.383Z,32.31
2022-09-01T17:26:25.184Z,32.28
2022-09-01T17:28:59.532Z,32.27
2022-09-01T17:31:45.460Z,32.20
2022-09-01T17:34:42.935Z,32.30
2022-09-01T17:37:29.153Z,32.17
2022-09-01T17:40:06.994Z,32.08
2022-09-01T17:42:45.043Z,32.00
2022-09-01T17:45:46.643Z,32.04
2022-09-01T17:48:28.124Z,32.05
2022-09-01T17:51:22.328Z,32.02
2022-09-01T17:54:02.914Z,31.99
2022-09-01T17:56:55.658Z,31.98
2022-09-01T17:59:36.610Z,32.01
2022-09-01T18:02:20.886Z,31.95
2022-09-01T18:05:07.803Z,31.98
2022-09-01T18:07:55.598Z,31.80
2022-09-01T18:10:30.745Z,31.94
2022-09-01T18:13:06.095Z,31.91
2022-09-01T18:16:04.265Z,31.93
2022-09-01T18:18:42.791Z,31.87
2022-09-01T18:21:18.079Z,31.81
2022-09-01T18:23:50.504Z,31.76
2022-09-01T18:26:30.472Z,32.00
2022-09-01T18:29:05.898Z,31.86
2022-09-01T18:31:53.134Z,31.93
2022-09-01T18:34:37.925Z,31.95
2022-09-01T18:37:38.443Z,31.84
2022-09-01T18:40:13.532Z,31.79
2022-09-01T18:42:42.731Z,31.67
2022-09-01T18:45:36.838Z,31.82
2022-09-01T18:48:26.933Z,31.75
2022-09-01T18:51:32.542Z,31.81
2022-09-01T18:54:16.231Z,31.84
2022-09-01T18:57:07.250Z,31.86
2022-09-01T18:59:45.246Z,31.85
2022-09-01T19:02:32.534Z,31.93
2022-09-01T19:05:28.957Z,31.85
2022-09-01T19:08:17.531Z,31.87
2022-09-01T19:11:04.774Z,31.78
2022-09-01T19:13:55.221Z,31.82
2022-09-01T19:16:49.333Z,31.84
2022-09-01T19:19:44.629Z,31.86
2022-09-01T19:22:33.172Z,31.81
2022-09-01T19:25:25.039Z,31.76
2022-09-01T19:28:08.387Z,31.79
2022-09-01T19:30:43.978Z,31.79
2022-09-01T19:33:18.043Z,31.75
2022-09-01T19:35:49.135Z,31.74
2022-09-01T19:38:28.804Z,31.82
2022-09-01T19:41:11.369Z,31.83
2022-09-01T19:43:41.537Z,31.86
2022-09-01T19:46:28.205Z,31.75
2022-09-01T19:49:27.856Z,31.71
2022-09-01T19:51:59.953Z,31.66
2022-09-01T19:54:45.976Z,31.65
2022-09-01T19:57:29.784Z,31.63
2022-09-01T20:00:17.288Z,31.64
2022-09-01T20:03:09.765Z,31.65
2022-09-01T20:06:05.629Z,31.61
2022-09-01T20:08:55.084Z,31.59
2022-09-01T20:11:42.445Z,31.38
2022-09-01T20:14:37.395Z,31.55
2022-09-01T20:17:09.873Z,31.44
2022-09-01T20:19:47.996Z,31.39
2022-09-01T20:22:31.123Z,31.55
2022-09-01T20:25:14.233Z,31.51
2022-09-01T20:28:02.020Z,31.45
2022-09-01T20:30:41.017Z,31.31
2022-09-01T20:33:36.154Z,31.35
2022-09-01T20:36:24.649Z,31.45
2022-09-01T20:39:30.953Z,31.41
2022-09-01T20:42:34.365Z,31.38
2022-09-01T20:45:19.504Z,31.36
2022-09-01T20:48:00.550Z,31.32
2022-09-01T20:51:02.320Z,31.30
2022-09-01T20:54:05.336Z,31.34
2022-09-01T20:57:03.028Z,31.27
2022-09-01T20:59:59.111Z,31.29
2022-09-01T21:02:44.592Z,31.25
2022-09-01T21:05:24.233Z,31.10
2022-09-01T21:08:29.094Z,31.29
2022-09-01T21:11:32.043Z,31.31
2022-09-01T21:14:21.367Z,31.16
2022-09-01T21:16:59.539Z,31.14
2022-09-01T21:19:40.925Z,31.23
2022-09-01T21:22:15.703Z,31.22
2022-09-01T21:24:47.674Z,31.14
2022-09-01T21:27:34.435Z,31.38
2022-09-01T21:30:10.561Z,31.29
2022-09-01T21:32:40.937Z,31.23
2022-09-01T21:35:13.444Z,31.29
2022-09-01T21:37:42.789Z,31.22
2022-09-01T21:40:13.657Z,31.28
2022-09-01T21:42:57.110Z,31.38
2022-09-01T21:45:27.061Z,31.27
2022-09-01T21:47:56.900Z,31.22
2022-09-01T21:50:27.194Z,31.25
2022-09-01T21:52:56.298Z,31.25
2022-09-01T21:55:25.989Z,31.27
2022-09-01T21:57:56.596Z,31.29
2022-09-01T22:00:31.089Z,31.29
2022-09-01T22:03:02.830Z,31.18
2022-09-01T22:05:32.566Z,31.14
2022-09-01T22:08:02.707Z,31.17
2022-09-01T22:10:32.803Z,31.22
2022-09-01T22:13:04.780Z,31.20
2022-09-01T22:15:33.916Z,31.13
2022-09-01T22:18:03.181Z,31.04
2022-09-01T22:20:32.995Z,31.08
2022-09-01T22:23:03.084Z,31.11
2022-09-01T22:25:34.710Z,31.16
2022-09-01T22:28:06.718Z,31.21
2022-09-01T22:30:36.264Z,31.15
2022-09-01T22:33:08.736Z,31.10
2022-09-01T22:35:43.175Z,31.26
2022-09-01T22:38:12.866Z,31.17
2022-09-01T22:40:47.251Z,31.27
2022-09-01T22:43:19.345Z,31.16
2022-09-01T22:45:50.622Z,31.16
2022-09-01T22:48:22.377Z,31.10
2022-09-01T22:50:52.558Z,31.11
2022-09-01T22:53:23.127Z,31.07
2022-09-01T22:55:53.912Z,31.08
2022-09-01T22:58:22.961Z,31.00
2022-09-01T23:00:56.997Z,31.07
2022-09-01T23:03:26.326Z,30.96
2022-09-01T23:06:21.836Z,31.09
2022-09-01T23:09:03.066Z,31.02
2022-09-01T23:11:32.535Z,30.89
2022-09-01T23:14:01.791Z,30.88
2022-09-01T23:16:30.854Z,30.87
2022-09-01T23:19:00.404Z,30.89
2022-09-01T23:21:32.654Z,30.99
2022-09-01T23:24:02.144Z,31.15
2022-09-01T23:26:32.980Z,30.94
2022-09-01T23:29:03.379Z,30.92
2022-09-01T23:31:35.696Z,30.87
2022-09-01T23:34:07.903Z,30.92
2022-09-01T23:36:38.484Z,30.81
2022-09-01T23:39:08.036Z,30.74
2022-09-01T23:41:39.469Z,30.84
2022-09-01T23:44:10.688Z,30.85
2022-09-01T23:46:43.943Z,30.92
2022-09-01T23:49:15.663Z,30.89
2022-09-01T23:51:46.912Z,30.89
2022-09-01T23:54:17.109Z,30.92
2022-09-01T23:56:47.176Z,30.89
2022-09-01T23:59:16.447Z,30.91
